Eldorado — PEEA — position and weather

sailwx.info

Track history (hours):
 
Tides and Currents Weather Stations Pressure Air Temp Water Temp Dewpoint Dewpoint Depression Visibility Wind Speed Wind Dir Waves Ship Positions

Eldorado

Last reported at 2017-Aug-23 15:29 UTC. Time now 2017-Aug-24 01:16 UTC.
Position N 18°01' W 063°04'.

Length 38 m; draft 3 m.

Type: Sailing vessel. MMSI: 244670000.

Date/timePositionNaut miles runAvg speedWind from/ knotsBaromVisibWave heightAir tempDewpointWater temp
2017-Aug-23 15:29N 18°01' W 063°04'3 6.7
2017-Aug-23 15:00N 18°02' W 063°07'1 0.9
2017-Aug-23 13:59N 18°03' W 063°08'2 4.6
2017-Aug-23 13:28N 18°01' W 063°06'1 2.9
2017-Aug-23 12:59N 18°01' W 063°04'0 0.0
2017-Aug-21 20:26N 18°01' W 063°04'3 5.9
2017-Aug-21 19:54N 18°02' W 063°07'1 1.2
2017-Aug-21 19:28N 18°03' W 063°08'0 0.1
2017-Aug-21 18:45N 18°03' W 063°08'1 5.3
2017-Aug-21 18:28N 18°02' W 063°07'2 4.9
2017-Aug-21 17:59N 18°01' W 063°04'1 0.0
2017-Aug-19 15:28N 18°01' W 063°04'3 6.7
2017-Aug-19 14:58N 18°02' W 063°07'1 1.1
2017-Aug-19 13:59N 18°03' W 063°08'3 5.8
2017-Aug-19 13:29N 18°01' W 063°05'  
2017-Aug-16 22:14N 18°01' W 063°03'2 0.2
2017-Aug-16 15:22N 18°01' W 063°05'3 7.1
2017-Aug-16 14:59N 18°02' W 063°07'1 1.8
2017-Aug-16 14:30N 18°03' W 063°08'0 0.4
2017-Aug-16 13:49N 18°02' W 063°08'2 4.8
2017-Aug-16 13:27N 18°01' W 063°06'  
Track history (hours):
 
Tides and Currents Weather Stations Pressure Air Temp Water Temp Dewpoint Dewpoint Depression Visibility Wind Speed Wind Dir Waves Ship Positions

Eldorado

Last reported at 2017-Aug-23 15:29 UTC. Time now 2017-Aug-24 01:16 UTC.
Position N 18°01' W 063°04'.

Length 38 m; draft 3 m.

Type: Sailing vessel. MMSI: 244670000.

Date/timePositionNaut miles runAvg speedWind from/ knotsBaromVisibWave heightAir tempDewpointWater temp
2017-Aug-23 15:29N 18°01' W 063°04'3 6.7
2017-Aug-23 15:00N 18°02' W 063°07'1 0.9
2017-Aug-23 13:59N 18°03' W 063°08'2 4.6
2017-Aug-23 13:28N 18°01' W 063°06'1 2.9
2017-Aug-23 12:59N 18°01' W 063°04'0 0.0
2017-Aug-21 20:26N 18°01' W 063°04'3 5.9
2017-Aug-21 19:54N 18°02' W 063°07'1 1.2
2017-Aug-21 19:28N 18°03' W 063°08'0 0.1
2017-Aug-21 18:45N 18°03' W 063°08'1 5.3
2017-Aug-21 18:28N 18°02' W 063°07'2 4.9
2017-Aug-21 17:59N 18°01' W 063°04'1 0.0
2017-Aug-19 15:28N 18°01' W 063°04'3 6.7
2017-Aug-19 14:58N 18°02' W 063°07'1 1.1
2017-Aug-19 13:59N 18°03' W 063°08'3 5.8
2017-Aug-19 13:29N 18°01' W 063°05'  
2017-Aug-16 22:14N 18°01' W 063°03'2 0.2
2017-Aug-16 15:22N 18°01' W 063°05'3 7.1
2017-Aug-16 14:59N 18°02' W 063°07'1 1.8
2017-Aug-16 14:30N 18°03' W 063°08'0 0.4
2017-Aug-16 13:49N 18°02' W 063°08'2 4.8
2017-Aug-16 13:27N 18°01' W 063°06'  

Dump ship's entire track history